Flight Track Log - Related Links

Times and Time Zones

All times are in EDT time to prevent confusion due to time zone crossing. See the AAY894 flight status page for this flight to view local times or setup timezone preferences in your user account.


Time Position Orientation Groundspeed Altitude Reporting Facility
EDT Latitude Longitude Course Direction KTS MPH feet Rate Location/Type
Thu 07:42:24 AM 27.9167 -82.6833 10° North 149 171 500  Level Tampa TRACON
Thu 07:43:48 AM 28.0000 -82.6667 10° North 243 280 3,500 2,375 Climbing Tampa TRACON
Thu 07:44:48 AM 28.0667 -82.6333 24° Northeast 258 297 6,200 2,700 Climbing Tampa TRACON
Thu 07:45:48 AM 28.1000 -82.5667 60° Northeast 272 313 8,900 1,701 Climbing Tampa TRACON
Thu 07:48:09 AM 28.2328 -82.4850 28° Northeast 240 276 11,900 1,313 Climbing Jacksonville Center
Thu 07:49:09 AM 28.3206 -82.5083 347° North 269 310 13,300 1,500 Climbing Jacksonville Center
Thu 07:50:09 AM 28.4167 -82.5361 346° North 311 358 14,900 1,600 Climbing Jacksonville Center
Thu 07:51:09 AM 28.5189 -82.5667 345° North 351 404 16,500 1,800 Climbing Jacksonville Center
Thu 07:52:09 AM 28.6275 -82.5969 346° North 376 433 18,500 2,000 Climbing Jacksonville Center
Thu 07:53:09 AM 28.7486 -82.6178 351° North 391 450 20,500 1,800 Climbing Jacksonville Center
Thu 07:54:09 AM 28.8633 -82.6367 352° North 401 461 22,100 1,550 Climbing Jacksonville Center
Thu 07:55:09 AM 28.9742 -82.6600 350° North 428 493 23,600 1,450 Climbing Jacksonville Center
Thu 07:56:09 AM 29.0931 -82.6836 350° North 434 499 25,000 1,350 Climbing Jacksonville Center
Thu 07:57:09 AM 29.2164 -82.7069 351° North 434 499 26,300 1,650 Climbing Jacksonville Center
Thu 07:58:09 AM 29.3394 -82.7044 North 440 506 28,300 1,750 Climbing Jacksonville Center
Thu 07:59:09 AM 29.4606 -82.6875 North 440 506 29,800 950 Climbing Jacksonville Center
Thu 08:00:09 AM 29.5836 -82.6753 North 440 506 30,200 450 Climbing Jacksonville Center
Thu 08:01:09 AM 29.7025 -82.6653 North 440 506 30,700 350 Climbing Jacksonville Center
Thu 08:02:09 AM 29.8217 -82.6581 North 429 494 30,900 100 Climbing Jacksonville Center
Thu 08:03:09 AM 29.9406 -82.6481 North 429 494 30,900 50 Level Jacksonville Center
Thu 08:04:09 AM 30.0594 -82.6358 North 424 488 31,000 50 Climbing Jacksonville Center
Thu 08:05:09 AM 30.1828 -82.6258 North 424 488 31,000  Level Jacksonville Center
Thu 08:06:09 AM 30.2975 -82.6158 North 424 488 31,000  Level Jacksonville Center
Thu 08:07:09 AM 30.4208 -82.6058 North 424 488 31,000 -50 Level Jacksonville Center
Thu 08:08:09 AM 30.5397 -82.5936 North 424 488 30,900  Descending Jacksonville Center
Thu 08:09:09 AM 30.6608 -82.5833 North 424 488 31,000  Climbing Jacksonville Center
Thu 08:10:09 AM 30.7819 -82.5758 North 424 488 30,900  Descending Jacksonville Center
Thu 08:11:09 AM 30.9050 -82.5633 North 424 488 31,000 50 Climbing Jacksonville Center
Thu 08:12:09 AM 31.0261 -82.5531 North 424 488 31,000  Level Jacksonville Center
Thu 08:13:09 AM 31.1492 -82.5431 North 430 495 31,000 -50 Level Jacksonville Center
Thu 08:14:09 AM 31.2703 -82.5328 North 430 495 30,900  Descending Jacksonville Center
Thu 08:15:09 AM 31.3914 -82.5178 North 435 501 31,000 50 Climbing Jacksonville Center
Thu 08:16:09 AM 31.5125 -82.5100 North 435 501 31,000  Level Jacksonville Center
Thu 08:17:39 AM 31.7075 -82.4839 North 443 510 31,000 360 Level Atlanta Center
Thu 08:18:39 AM 31.8264 -82.4622 North 443 510 31,900 900 Climbing Atlanta Center
Thu 08:19:39 AM 31.9469 -82.4431 North 438 504 32,800 550 Climbing Atlanta Center
Thu 08:20:39 AM 32.0678 -82.4261 North 433 498 33,000 100 Climbing Atlanta Center
Thu 08:21:39 AM 32.1908 -82.4067 North 433 498 33,000  Level Atlanta Center
Thu 08:22:39 AM 32.3094 -82.3897 North 433 498 33,000  Level Atlanta Center
Thu 08:23:39 AM 32.4303 -82.3678 North 438 504 33,000  Level Atlanta Center
Thu 08:24:39 AM 32.5489 -82.3483 North 438 504 33,000  Level Atlanta Center
Thu 08:25:39 AM 32.6719 -82.3264 North 438 504 33,000  Level Atlanta Center
Thu 08:26:39 AM 32.7928 -82.3092 North 438 504 33,000  Level Atlanta Center
Thu 08:27:39 AM 32.9114 -82.2919 North 438 504 33,000  Level Atlanta Center
Thu 08:28:39 AM 33.0300 -82.2697 North 438 504 33,000  Level Atlanta Center
Thu 08:29:39 AM 33.1531 -82.2525 North 432 497 33,000  Level Atlanta Center
Thu 08:30:39 AM 33.2717 -82.2325 North 432 497 33,000  Level Atlanta Center
Thu 08:31:39 AM 33.3944 -82.2125 North 432 497 33,000  Level Atlanta Center
Thu 08:32:39 AM 33.5153 -82.1925 North 432 497 33,000  Level Atlanta Center
Thu 08:33:39 AM 33.6236 -82.1703 10° North 432 497 33,000  Level Atlanta Center
Thu 08:34:39 AM 33.7464 -82.1525 North 438 504 33,000  Level Atlanta Center
Thu 08:35:39 AM 33.8672 -82.1325 North 438 504 33,000  Level Atlanta Center
Thu 08:36:39 AM 33.9858 -82.1122 North 438 504 33,000  Level Atlanta Center
Thu 08:37:39 AM 34.1064 -82.0919 North 438 504 33,000  Level Atlanta Center
Thu 08:38:39 AM 34.2292 -82.0717 North 438 504 33,000  Level Atlanta Center
Thu 08:39:39 AM 34.3481 -82.0511 North 438 504 33,000  Level Atlanta Center
Thu 08:40:39 AM 34.4686 -82.0306 North 438 504 33,000  Level Atlanta Center
Thu 08:41:39 AM 34.5872 -82.0000 12° North 438 504 33,000  Level Atlanta Center
Thu 08:42:39 AM 34.7075 -81.9694 12° North 438 504 33,000  Level Atlanta Center
Thu 08:43:39 AM 34.8406 -81.9358 12° North 438 504 33,000  Level Atlanta Center
Thu 08:44:39 AM 34.9631 -81.9047 12° North 438 504 33,000  Level Atlanta Center
Thu 08:45:39 AM 35.0858 -81.8711 13° North 443 510 33,000  Level Atlanta Center
Thu 08:46:39 AM 35.2083 -81.8400 12° North 448 516 33,000  Level Atlanta Center
Thu 08:47:39 AM 35.3161 -81.8092 13° North 448 516 33,000  Level Atlanta Center
Thu 08:48:39 AM 35.4386 -81.7778 12° North 448 516 33,000  Level Atlanta Center
Thu 08:49:39 AM 35.5633 -81.7436 13° North 448 516 33,000  Level Atlanta Center
Thu 08:50:39 AM 35.6878 -81.7094 13° North 448 516 33,000  Level Atlanta Center
Thu 08:51:39 AM 35.8103 -81.6778 12° North 448 516 33,000  Level Atlanta Center
Thu 08:52:39 AM 35.9347 -81.6433 13° North 448 516 33,000  Level Atlanta Center
Thu 08:53:39 AM 36.0592 -81.6064 13° North 448 516 33,000  Level Atlanta Center
Thu 08:54:39 AM 36.1817 -81.5744 12° North 448 516 33,000  Level Atlanta Center
Thu 08:55:39 AM 36.3061 -81.5397 13° North 448 516 33,000  Level Atlanta Center
Thu 08:56:39 AM 36.4303 -81.5022 14° North 448 516 33,000  Level Atlanta Center
Thu 08:57:39 AM 36.5528 -81.4725 11° North 448 516 33,000  Level Atlanta Center
Thu 08:58:39 AM 36.6772 -81.4350 14° North 448 516 33,000  Level Atlanta Center
Thu 09:00:18 AM 36.8919 -81.3747 13° North 455 524 33,000  Level Indianapolis Center
Thu 09:01:20 AM 37.0150 -81.3400 13° North 455 524 33,000  Level Indianapolis Center
Thu 09:02:22 AM 37.1417 -81.3033 13° North 455 524 33,000  Level Indianapolis Center
Thu 09:03:24 AM 37.2667 -81.2683 13° North 456 525 33,000  Level Indianapolis Center
Thu 09:04:26 AM 37.3889 -81.2333 13° North 456 525 33,000  Level Indianapolis Center
Thu 09:05:28 AM 37.5139 -81.1989 12° North 456 525 33,000  Level Indianapolis Center
Thu 09:06:31 AM 37.6628 -81.1567 13° North 456 525 33,000  Level Indianapolis Center
Thu 09:07:33 AM 37.7875 -81.1208 13° North 456 525 33,000  Level Indianapolis Center
Thu 09:08:35 AM 37.9217 -81.0828 13° North 457 526 33,000  Level Indianapolis Center
Thu 09:09:37 AM 38.0453 -81.0458 13° North 457 526 33,000  Level Indianapolis Center
Thu 09:10:39 AM 38.1700 -81.0097 13° North 457 526 33,000  Level Indianapolis Center
Thu 09:11:41 AM 38.2953 -80.9744 12° North 458 527 33,000  Level Indianapolis Center
Thu 09:12:43 AM 38.4206 -80.9381 13° North 459 528 33,000  Level Indianapolis Center
Thu 09:13:45 AM 38.5697 -80.8928 13° North 459 528 33,000  Level Indianapolis Center
Thu 09:14:47 AM 38.6956 -80.8572 12° North 461 531 33,000  Level Indianapolis Center
Thu 09:15:49 AM 38.8203 -80.8197 13° North 462 532 33,000  Level Indianapolis Center
Thu 09:16:51 AM 38.9458 -80.7825 13° North 462 532 33,000  Level Indianapolis Center
Thu 09:17:53 AM 39.0703 -80.7461 13° North 462 532 33,000  Level Indianapolis Center
Thu 09:18:55 AM 39.1975 -80.7083 13° North 468 539 33,000  Level Indianapolis Center
Thu 09:19:58 AM 39.3464 -80.6642 13° North 462 532 33,000  Level Indianapolis Center
Thu 09:20:40 AM 39.4361 -80.6375 13° North 464 534 33,000  Level Cleveland Center
Thu 09:21:42 AM 39.5619 -80.5997 13° North 463 533 33,000  Level Cleveland Center
Thu 09:22:44 AM 39.6881 -80.5614 13° North 463 533 33,000 -484 Level Cleveland Center
Thu 09:23:46 AM 39.8142 -80.5233 13° North 464 534 32,000 -968 Descending Cleveland Center
Thu 09:24:48 AM 39.9428 -80.4844 13° North 467 537 31,000 -484 Descending Cleveland Center
Thu 09:25:50 AM 40.0681 -80.4464 13° North 466 536 31,000  Level Cleveland Center
Thu 09:26:52 AM 40.2203 -80.4000 13° North 465 535 31,000  Level Cleveland Center
Thu 09:27:54 AM 40.3486 -80.3611 13° North 465 535 31,000  Level Cleveland Center
Thu 09:28:57 AM 40.4853 -80.3197 13° North 471 542 31,000  Level Cleveland Center
Thu 09:29:59 AM 40.6114 -80.2792 14° North 471 542 31,000  Level Cleveland Center
Thu 09:31:01 AM 40.7344 -80.2397 14° North 459 528 31,000  Level Cleveland Center
Thu 09:32:03 AM 40.8592 -80.1872 18° North 471 542 31,000  Level Cleveland Center
Thu 09:33:05 AM 40.9808 -80.1017 28° Northeast 491 565 31,000 -435 Level Cleveland Center
Thu 09:34:07 AM 41.1050 -80.0325 23° Northeast 488 562 30,100 -968 Descending Cleveland Center
Thu 09:35:09 AM 41.2511 -79.9525 22° Northeast 480 552 29,000 -1,016 Descending Cleveland Center
Thu 09:36:11 AM 41.3736 -79.8872 22° Northeast 478 550 28,000 -968 Descending Cleveland Center
Thu 09:37:13 AM 41.4947 -79.8217 22° Northeast 468 539 27,000 -960 Descending Cleveland Center
Thu 09:38:16 AM 41.6128 -79.7586 22° Northeast 461 531 26,000 -960 Descending Cleveland Center
Thu 09:39:18 AM 41.7306 -79.6922 23° Northeast 459 528 25,000 -968 Descending Cleveland Center
Thu 09:40:20 AM 41.8653 -79.6200 22° Northeast 437 503 24,000 -532 Descending Cleveland Center
Thu 09:41:22 AM 41.9778 -79.5592 22° Northeast 436 502 23,900 -871 Descending Cleveland Center
Thu 09:42:24 AM 42.0886 -79.4969 23° Northeast 436 502 22,200 -1,935 Descending Cleveland Center
Thu 09:43:26 AM 42.2000 -79.4364 22° Northeast 435 501 19,900 -2,177 Descending Cleveland Center
Thu 09:44:28 AM 42.3058 -79.3769 23° Northeast 413 475 17,700 -2,371 Descending Cleveland Center
Thu 09:45:30 AM 42.4261 -79.3097 22° Northeast 395 455 15,000 -2,304 Descending Cleveland Center
Thu 09:46:33 AM 42.5222 -79.2564 22° Northeast 381 438 12,900 -1,488 Descending Cleveland Center
Thu 09:47:35 AM 42.6117 -79.2056 23° Northeast 352 405 11,900 -1,016 Descending Cleveland Center
Thu 09:48:37 AM 42.6906 -79.1606 23° Northeast 311 358 10,800 -1,597 Descending Cleveland Center
Thu 09:49:39 AM 42.7675 -79.1131 24° Northeast 284 327 8,600 -1,935 Descending Cleveland Center
Thu 09:50:41 AM 42.8342 -79.0531 33° Northeast 280 322 6,800 -1,694 Descending Cleveland Center
Thu 09:51:43 AM 42.8933 -78.9844 40° Northeast 275 316 5,100 -871 Descending Cleveland Center
Thu 09:52:45 AM 42.9514 -78.9167 41° Northeast 268 308 5,000 -339 Descending Cleveland Center
Thu 09:53:47 AM 43.0114 -78.8483 40° Northeast 268 308 4,400 -816 Descending Cleveland Center
Thu 09:54:50 AM 43.0392 -78.7711 64° Northeast 228 262 3,300 -672 Descending Cleveland Center
Thu 09:55:52 AM 43.0761 -78.7231 44° Northeast 210 242 3,000 -435 Descending Cleveland Center
Thu 09:56:54 AM 43.1083 -78.7786 308° West 204 235 2,400 -677 Descending Cleveland Center
Thu 09:57:56 AM 43.1092 -78.8444 271° West 178 205 1,600 -435 Descending Cleveland Center
Thu 09:58:58 AM 43.1089 -78.9031 270° West 163 188 1,500 -97 Descending Cleveland Center

Login

Don't have an account? Register now (free) for customized features, flight alerts, and more!